Terminal Aerodrome Forecast
Issued by NWS Wilmington, OH

Current Version | Previous Version | Graphics & Text | Print | Product List | Glossary Off
Versions: 1 2 3 4 5 6 7 8 9 10 11 12 13 14 15

000
FTUS41 KILN 260208 AAA
TAFCMH
TAF AMD
KCMH 260208Z 2602/2624 17005KT P6SM SCT050 SCT120 BKN250
     FM260900 18005KT P6SM BKN035 BKN080
     FM261400 21008KT P6SM BKN035 BKN100
     FM261700 22009KT P6SM SCT035=

USA.gov is the U.S. government's official web portal to all federal, state and local government web resources and services.